sensor_id;sensor_type;location;lat;lon;timestamp;P1;durP1;ratioP1;P2;durP2;ratioP2
66270;SDS011;53063;39.614;8.814;2023-05-07T00:00:38;3.67;;;2.40;;
66270;SDS011;53063;39.614;8.814;2023-05-07T00:03:05;4.35;;;2.60;;
66270;SDS011;53063;39.614;8.814;2023-05-07T00:05:31;5.63;;;2.22;;
66270;SDS011;53063;39.614;8.814;2023-05-07T00:07:57;3.85;;;2.60;;
66270;SDS011;53063;39.614;8.814;2023-05-07T00:10:23;5.75;;;2.47;;
66270;SDS011;53063;39.614;8.814;2023-05-07T00:12:50;4.53;;;2.42;;
66270;SDS011;53063;39.614;8.814;2023-05-07T00:15:16;3.72;;;2.40;;
66270;SDS011;53063;39.614;8.814;2023-05-07T00:17:42;4.47;;;2.65;;
66270;SDS011;53063;39.614;8.814;2023-05-07T00:20:08;4.50;;;2.50;;
66270;SDS011;53063;39.614;8.814;2023-05-07T00:22:34;3.08;;;1.98;;
66270;SDS011;53063;39.614;8.814;2023-05-07T00:25:00;4.60;;;2.63;;
66270;SDS011;53063;39.614;8.814;2023-05-07T00:27:26;3.53;;;2.15;;
66270;SDS011;53063;39.614;8.814;2023-05-07T00:29:52;3.30;;;2.30;;
66270;SDS011;53063;39.614;8.814;2023-05-07T00:32:18;4.25;;;2.50;;
66270;SDS011;53063;39.614;8.814;2023-05-07T00:34:44;3.03;;;2.15;;
66270;SDS011;53063;39.614;8.814;2023-05-07T00:37:10;5.35;;;2.20;;
66270;SDS011;53063;39.614;8.814;2023-05-07T00:39:37;3.65;;;2.22;;
66270;SDS011;53063;39.614;8.814;2023-05-07T00:42:03;3.05;;;1.98;;
66270;SDS011;53063;39.614;8.814;2023-05-07T00:44:29;3.53;;;2.20;;
66270;SDS011;53063;39.614;8.814;2023-05-07T00:46:55;3.13;;;1.98;;
66270;SDS011;53063;39.614;8.814;2023-05-07T00:49:24;3.30;;;1.92;;
66270;SDS011;53063;39.614;8.814;2023-05-07T00:51:59;2.97;;;1.85;;
66270;SDS011;53063;39.614;8.814;2023-05-07T00:54:25;4.13;;;2.20;;
66270;SDS011;53063;39.614;8.814;2023-05-07T00:56:51;3.53;;;2.30;;
66270;SDS011;53063;39.614;8.814;2023-05-07T00:59:17;3.42;;;2.08;;
66270;SDS011;53063;39.614;8.814;2023-05-07T01:01:44;3.58;;;1.90;;
66270;SDS011;53063;39.614;8.814;2023-05-07T01:04:10;4.28;;;2.20;;
66270;SDS011;53063;39.614;8.814;2023-05-07T01:06:36;4.15;;;2.40;;
66270;SDS011;53063;39.614;8.814;2023-05-07T01:09:03;2.88;;;2.15;;
66270;SDS011;53063;39.614;8.814;2023-05-07T01:11:30;3.85;;;2.30;;
66270;SDS011;53063;39.614;8.814;2023-05-07T01:13:56;4.68;;;2.42;;
66270;SDS011;53063;39.614;8.814;2023-05-07T01:16:24;3.03;;;2.13;;
66270;SDS011;53063;39.614;8.814;2023-05-07T01:18:50;3.83;;;2.13;;
66270;SDS011;53063;39.614;8.814;2023-05-07T01:21:16;3.50;;;2.10;;
66270;SDS011;53063;39.614;8.814;2023-05-07T01:23:43;3.97;;;2.17;;
66270;SDS011;53063;39.614;8.814;2023-05-07T01:26:11;2.80;;;1.90;;
66270;SDS011;53063;39.614;8.814;2023-05-07T01:28:37;3.20;;;2.10;;
66270;SDS011;53063;39.614;8.814;2023-05-07T01:31:03;3.35;;;2.28;;
66270;SDS011;53063;39.614;8.814;2023-05-07T01:33:33;3.25;;;2.00;;
66270;SDS011;53063;39.614;8.814;2023-05-07T01:36:01;3.70;;;2.20;;
66270;SDS011;53063;39.614;8.814;2023-05-07T01:38:31;3.05;;;2.17;;
66270;SDS011;53063;39.614;8.814;2023-05-07T01:40:57;3.25;;;2.00;;
66270;SDS011;53063;39.614;8.814;2023-05-07T01:43:24;2.92;;;1.80;;
66270;SDS011;53063;39.614;8.814;2023-05-07T01:45:50;2.33;;;1.65;;
66270;SDS011;53063;39.614;8.814;2023-05-07T01:48:18;2.58;;;2.00;;
66270;SDS011;53063;39.614;8.814;2023-05-07T01:50:44;3.35;;;1.92;;
66270;SDS011;53063;39.614;8.814;2023-05-07T01:53:11;2.42;;;1.90;;
66270;SDS011;53063;39.614;8.814;2023-05-07T01:55:37;3.83;;;2.00;;
66270;SDS011;53063;39.614;8.814;2023-05-07T01:58:04;3.85;;;1.98;;
66270;SDS011;53063;39.614;8.814;2023-05-07T02:00:30;3.15;;;2.00;;
66270;SDS011;53063;39.614;8.814;2023-05-07T02:02:56;3.58;;;2.30;;
66270;SDS011;53063;39.614;8.814;2023-05-07T02:05:33;2.85;;;2.20;;
66270;SDS011;53063;39.614;8.814;2023-05-07T02:08:05;2.77;;;1.97;;
66270;SDS011;53063;39.614;8.814;2023-05-07T02:10:31;3.47;;;1.90;;
66270;SDS011;53063;39.614;8.814;2023-05-07T02:12:58;3.30;;;2.08;;
66270;SDS011;53063;39.614;8.814;2023-05-07T02:15:26;2.38;;;1.67;;
66270;SDS011;53063;39.614;8.814;2023-05-07T02:18:01;4.28;;;1.80;;
66270;SDS011;53063;39.614;8.814;2023-05-07T02:20:29;3.38;;;2.15;;
66270;SDS011;53063;39.614;8.814;2023-05-07T02:22:55;3.60;;;2.10;;
66270;SDS011;53063;39.614;8.814;2023-05-07T02:25:21;4.53;;;2.20;;
66270;SDS011;53063;39.614;8.814;2023-05-07T02:27:48;2.72;;;1.90;;
66270;SDS011;53063;39.614;8.814;2023-05-07T02:30:14;4.00;;;2.05;;
66270;SDS011;53063;39.614;8.814;2023-05-07T02:32:40;4.20;;;2.55;;
66270;SDS011;53063;39.614;8.814;2023-05-07T02:35:07;2.72;;;2.08;;
66270;SDS011;53063;39.614;8.814;2023-05-07T02:37:33;3.38;;;1.92;;
66270;SDS011;53063;39.614;8.814;2023-05-07T02:39:59;3.28;;;2.00;;
66270;SDS011;53063;39.614;8.814;2023-05-07T02:42:25;3.08;;;2.10;;
66270;SDS011;53063;39.614;8.814;2023-05-07T02:44:52;3.03;;;2.05;;
66270;SDS011;53063;39.614;8.814;2023-05-07T02:47:18;3.03;;;1.90;;
66270;SDS011;53063;39.614;8.814;2023-05-07T02:49:44;4.13;;;1.80;;
66270;SDS011;53063;39.614;8.814;2023-05-07T02:52:10;3.95;;;2.00;;
66270;SDS011;53063;39.614;8.814;2023-05-07T02:54:36;2.85;;;1.58;;
66270;SDS011;53063;39.614;8.814;2023-05-07T02:57:02;2.92;;;2.00;;
66270;SDS011;53063;39.614;8.814;2023-05-07T02:59:28;3.30;;;1.80;;
66270;SDS011;53063;39.614;8.814;2023-05-07T03:01:55;3.83;;;2.15;;
66270;SDS011;53063;39.614;8.814;2023-05-07T03:04:21;3.75;;;1.85;;
66270;SDS011;53063;39.614;8.814;2023-05-07T03:06:47;4.47;;;2.17;;
66270;SDS011;53063;39.614;8.814;2023-05-07T03:09:13;3.63;;;2.00;;
66270;SDS011;53063;39.614;8.814;2023-05-07T03:11:39;4.97;;;1.83;;
66270;SDS011;53063;39.614;8.814;2023-05-07T03:14:05;2.97;;;1.90;;
66270;SDS011;53063;39.614;8.814;2023-05-07T03:16:31;2.45;;;1.92;;
66270;SDS011;53063;39.614;8.814;2023-05-07T03:18:58;3.10;;;2.00;;
66270;SDS011;53063;39.614;8.814;2023-05-07T03:21:24;3.47;;;1.80;;
66270;SDS011;53063;39.614;8.814;2023-05-07T03:23:51;3.42;;;1.90;;
66270;SDS011;53063;39.614;8.814;2023-05-07T03:26:17;3.05;;;1.67;;
66270;SDS011;53063;39.614;8.814;2023-05-07T03:28:44;4.18;;;2.28;;
66270;SDS011;53063;39.614;8.814;2023-05-07T03:31:12;2.97;;;2.00;;
66270;SDS011;53063;39.614;8.814;2023-05-07T03:33:47;2.22;;;1.73;;
66270;SDS011;53063;39.614;8.814;2023-05-07T03:36:23;5.07;;;1.83;;
66270;SDS011;53063;39.614;8.814;2023-05-07T03:38:52;2.25;;;1.65;;
66270;SDS011;53063;39.614;8.814;2023-05-07T03:41:21;2.88;;;2.10;;
66270;SDS011;53063;39.614;8.814;2023-05-07T03:43:47;3.97;;;2.20;;
66270;SDS011;53063;39.614;8.814;2023-05-07T03:46:13;2.88;;;2.05;;
66270;SDS011;53063;39.614;8.814;2023-05-07T03:48:40;2.67;;;1.80;;
66270;SDS011;53063;39.614;8.814;2023-05-07T03:51:06;4.30;;;2.03;;
66270;SDS011;53063;39.614;8.814;2023-05-07T03:53:33;3.42;;;2.05;;
66270;SDS011;53063;39.614;8.814;2023-05-07T03:55:59;2.92;;;1.95;;
66270;SDS011;53063;39.614;8.814;2023-05-07T03:58:26;4.78;;;2.17;;
66270;SDS011;53063;39.614;8.814;2023-05-07T04:00:56;4.00;;;2.20;;
66270;SDS011;53063;39.614;8.814;2023-05-07T04:03:26;3.55;;;2.45;;
66270;SDS011;53063;39.614;8.814;2023-05-07T04:05:54;3.97;;;2.00;;
66270;SDS011;53063;39.614;8.814;2023-05-07T04:08:20;5.03;;;2.08;;
66270;SDS011;53063;39.614;8.814;2023-05-07T04:10:54;4.78;;;2.47;;
66270;SDS011;53063;39.614;8.814;2023-05-07T04:13:22;3.53;;;2.58;;
66270;SDS011;53063;39.614;8.814;2023-05-07T04:15:48;4.18;;;2.50;;
66270;SDS011;53063;39.614;8.814;2023-05-07T04:18:17;6.55;;;2.63;;
66270;SDS011;53063;39.614;8.814;2023-05-07T04:20:45;4.15;;;2.80;;
66270;SDS011;53063;39.614;8.814;2023-05-07T04:23:13;4.97;;;2.70;;
66270;SDS011;53063;39.614;8.814;2023-05-07T04:25:40;4.18;;;2.53;;
66270;SDS011;53063;39.614;8.814;2023-05-07T04:28:18;3.80;;;2.53;;
66270;SDS011;53063;39.614;8.814;2023-05-07T04:30:44;5.22;;;2.42;;
66270;SDS011;53063;39.614;8.814;2023-05-07T04:33:11;3.72;;;2.47;;
66270;SDS011;53063;39.614;8.814;2023-05-07T04:35:39;3.45;;;2.40;;
66270;SDS011;53063;39.614;8.814;2023-05-07T04:38:05;3.42;;;1.98;;
66270;SDS011;53063;39.614;8.814;2023-05-07T04:40:31;3.28;;;2.30;;
66270;SDS011;53063;39.614;8.814;2023-05-07T04:42:59;3.92;;;2.13;;
66270;SDS011;53063;39.614;8.814;2023-05-07T04:45:27;4.43;;;2.22;;
66270;SDS011;53063;39.614;8.814;2023-05-07T04:47:54;2.55;;;2.20;;
66270;SDS011;53063;39.614;8.814;2023-05-07T04:50:20;4.63;;;2.90;;
66270;SDS011;53063;39.614;8.814;2023-05-07T04:52:49;4.03;;;2.72;;
66270;SDS011;53063;39.614;8.814;2023-05-07T04:55:15;4.25;;;2.30;;
66270;SDS011;53063;39.614;8.814;2023-05-07T04:57:41;5.07;;;2.80;;
66270;SDS011;53063;39.614;8.814;2023-05-07T05:00:10;3.75;;;2.50;;
66270;SDS011;53063;39.614;8.814;2023-05-07T05:02:40;3.92;;;2.53;;
66270;SDS011;53063;39.614;8.814;2023-05-07T05:05:07;5.63;;;3.30;;
66270;SDS011;53063;39.614;8.814;2023-05-07T05:07:33;4.78;;;2.78;;
66270;SDS011;53063;39.614;8.814;2023-05-07T05:10:01;3.47;;;2.50;;
66270;SDS011;53063;39.614;8.814;2023-05-07T05:12:30;3.03;;;2.30;;
66270;SDS011;53063;39.614;8.814;2023-05-07T05:14:58;5.07;;;2.40;;
66270;SDS011;53063;39.614;8.814;2023-05-07T05:17:24;5.45;;;2.63;;
66270;SDS011;53063;39.614;8.814;2023-05-07T05:19:50;6.22;;;2.60;;
66270;SDS011;53063;39.614;8.814;2023-05-07T05:22:16;4.43;;;2.15;;
66270;SDS011;53063;39.614;8.814;2023-05-07T05:24:42;3.10;;;2.10;;
66270;SDS011;53063;39.614;8.814;2023-05-07T05:27:08;4.53;;;2.08;;
66270;SDS011;53063;39.614;8.814;2023-05-07T05:29:34;3.58;;;2.42;;
66270;SDS011;53063;39.614;8.814;2023-05-07T05:32:00;3.92;;;2.58;;
66270;SDS011;53063;39.614;8.814;2023-05-07T05:34:28;6.25;;;2.35;;
66270;SDS011;53063;39.614;8.814;2023-05-07T05:36:55;3.22;;;2.35;;
66270;SDS011;53063;39.614;8.814;2023-05-07T05:39:22;3.17;;;2.00;;
66270;SDS011;53063;39.614;8.814;2023-05-07T05:41:48;4.28;;;2.85;;
66270;SDS011;53063;39.614;8.814;2023-05-07T05:44:15;8.00;;;2.47;;
66270;SDS011;53063;39.614;8.814;2023-05-07T05:46:42;8.30;;;2.47;;
66270;SDS011;53063;39.614;8.814;2023-05-07T05:49:08;3.28;;;2.38;;
66270;SDS011;53063;39.614;8.814;2023-05-07T05:51:34;3.90;;;2.70;;
66270;SDS011;53063;39.614;8.814;2023-05-07T05:54:00;2.92;;;2.30;;
66270;SDS011;53063;39.614;8.814;2023-05-07T05:56:26;4.35;;;2.42;;
66270;SDS011;53063;39.614;8.814;2023-05-07T05:58:52;3.08;;;2.45;;
66270;SDS011;53063;39.614;8.814;2023-05-07T06:01:18;3.20;;;2.50;;
66270;SDS011;53063;39.614;8.814;2023-05-07T06:03:45;4.63;;;2.50;;
66270;SDS011;53063;39.614;8.814;2023-05-07T06:06:13;3.97;;;2.30;;
66270;SDS011;53063;39.614;8.814;2023-05-07T06:08:41;5.57;;;2.72;;
66270;SDS011;53063;39.614;8.814;2023-05-07T06:11:09;4.25;;;2.72;;
66270;SDS011;53063;39.614;8.814;2023-05-07T06:13:37;4.55;;;2.90;;
66270;SDS011;53063;39.614;8.814;2023-05-07T06:16:03;5.30;;;2.70;;
66270;SDS011;53063;39.614;8.814;2023-05-07T06:18:29;4.72;;;2.42;;
66270;SDS011;53063;39.614;8.814;2023-05-07T06:20:55;4.05;;;2.47;;
66270;SDS011;53063;39.614;8.814;2023-05-07T06:23:25;4.88;;;2.60;;
66270;SDS011;53063;39.614;8.814;2023-05-07T06:25:51;5.32;;;3.00;;
66270;SDS011;53063;39.614;8.814;2023-05-07T06:28:20;3.83;;;2.63;;
66270;SDS011;53063;39.614;8.814;2023-05-07T06:30:46;4.90;;;2.60;;
66270;SDS011;53063;39.614;8.814;2023-05-07T06:33:16;4.55;;;2.42;;
66270;SDS011;53063;39.614;8.814;2023-05-07T06:35:42;5.38;;;3.10;;
66270;SDS011;53063;39.614;8.814;2023-05-07T06:38:08;4.15;;;3.00;;
66270;SDS011;53063;39.614;8.814;2023-05-07T06:40:33;5.78;;;3.10;;
66270;SDS011;53063;39.614;8.814;2023-05-07T06:43:00;4.43;;;2.80;;
66270;SDS011;53063;39.614;8.814;2023-05-07T06:45:40;4.55;;;2.80;;
66270;SDS011;53063;39.614;8.814;2023-05-07T06:48:07;4.53;;;3.30;;
66270;SDS011;53063;39.614;8.814;2023-05-07T06:50:43;7.20;;;4.18;;
66270;SDS011;53063;39.614;8.814;2023-05-07T06:53:10;6.05;;;2.97;;
66270;SDS011;53063;39.614;8.814;2023-05-07T06:55:36;7.22;;;3.80;;
66270;SDS011;53063;39.614;8.814;2023-05-07T06:58:04;4.85;;;2.80;;
66270;SDS011;53063;39.614;8.814;2023-05-07T07:00:31;5.70;;;2.72;;
66270;SDS011;53063;39.614;8.814;2023-05-07T07:02:57;4.03;;;2.53;;
66270;SDS011;53063;39.614;8.814;2023-05-07T07:05:27;4.68;;;2.63;;
66270;SDS011;53063;39.614;8.814;2023-05-07T07:07:53;4.65;;;2.40;;
66270;SDS011;53063;39.614;8.814;2023-05-07T07:10:20;4.18;;;2.42;;
66270;SDS011;53063;39.614;8.814;2023-05-07T07:12:48;3.15;;;2.13;;
66270;SDS011;53063;39.614;8.814;2023-05-07T07:15:15;3.47;;;2.30;;
66270;SDS011;53063;39.614;8.814;2023-05-07T07:17:42;3.58;;;2.15;;
66270;SDS011;53063;39.614;8.814;2023-05-07T07:20:08;3.42;;;2.28;;
66270;SDS011;53063;39.614;8.814;2023-05-07T07:22:34;2.55;;;2.20;;
66270;SDS011;53063;39.614;8.814;2023-05-07T07:25:00;4.90;;;2.55;;
66270;SDS011;53063;39.614;8.814;2023-05-07T07:27:26;5.43;;;3.45;;
66270;SDS011;53063;39.614;8.814;2023-05-07T07:29:52;6.28;;;3.13;;
66270;SDS011;53063;39.614;8.814;2023-05-07T07:32:18;5.30;;;3.03;;
66270;SDS011;53063;39.614;8.814;2023-05-07T07:34:45;8.45;;;4.25;;
66270;SDS011;53063;39.614;8.814;2023-05-07T07:37:12;6.15;;;3.42;;
66270;SDS011;53063;39.614;8.814;2023-05-07T07:39:38;5.97;;;3.80;;
66270;SDS011;53063;39.614;8.814;2023-05-07T07:42:06;3.30;;;2.67;;
66270;SDS011;53063;39.614;8.814;2023-05-07T07:44:32;3.60;;;2.08;;
66270;SDS011;53063;39.614;8.814;2023-05-07T07:47:04;2.33;;;1.77;;
66270;SDS011;53063;39.614;8.814;2023-05-07T07:49:31;4.38;;;2.45;;
66270;SDS011;53063;39.614;8.814;2023-05-07T07:52:01;3.53;;;2.30;;
66270;SDS011;53063;39.614;8.814;2023-05-07T07:54:28;3.40;;;2.20;;
66270;SDS011;53063;39.614;8.814;2023-05-07T07:56:55;2.97;;;2.20;;
66270;SDS011;53063;39.614;8.814;2023-05-07T07:59:22;2.33;;;2.05;;
66270;SDS011;53063;39.614;8.814;2023-05-07T08:01:49;4.47;;;2.92;;
66270;SDS011;53063;39.614;8.814;2023-05-07T08:04:17;3.30;;;2.40;;
66270;SDS011;53063;39.614;8.814;2023-05-07T08:06:43;6.28;;;2.88;;
66270;SDS011;53063;39.614;8.814;2023-05-07T08:09:10;2.55;;;2.08;;
66270;SDS011;53063;39.614;8.814;2023-05-07T08:11:38;4.28;;;2.55;;
66270;SDS011;53063;39.614;8.814;2023-05-07T08:14:05;2.38;;;1.88;;
66270;SDS011;53063;39.614;8.814;2023-05-07T08:16:31;3.22;;;2.10;;
66270;SDS011;53063;39.614;8.814;2023-05-07T08:18:58;3.92;;;2.22;;
66270;SDS011;53063;39.614;8.814;2023-05-07T08:21:25;3.70;;;2.50;;
66270;SDS011;53063;39.614;8.814;2023-05-07T08:23:52;4.63;;;2.33;;
66270;SDS011;53063;39.614;8.814;2023-05-07T08:26:17;2.92;;;2.30;;
66270;SDS011;53063;39.614;8.814;2023-05-07T08:28:44;4.70;;;1.95;;
66270;SDS011;53063;39.614;8.814;2023-05-07T08:31:10;7.25;;;3.67;;
66270;SDS011;53063;39.614;8.814;2023-05-07T08:33:39;8.38;;;3.38;;
66270;SDS011;53063;39.614;8.814;2023-05-07T08:36:05;4.10;;;3.00;;
66270;SDS011;53063;39.614;8.814;2023-05-07T08:38:31;8.38;;;3.65;;
66270;SDS011;53063;39.614;8.814;2023-05-07T08:40:57;6.68;;;3.83;;
66270;SDS011;53063;39.614;8.814;2023-05-07T08:43:26;4.82;;;2.40;;
66270;SDS011;53063;39.614;8.814;2023-05-07T08:45:53;2.45;;;1.98;;
66270;SDS011;53063;39.614;8.814;2023-05-07T08:48:25;4.82;;;3.03;;
66270;SDS011;53063;39.614;8.814;2023-05-07T08:51:03;4.45;;;2.88;;
66270;SDS011;53063;39.614;8.814;2023-05-07T08:53:30;5.85;;;2.58;;
66270;SDS011;53063;39.614;8.814;2023-05-07T08:55:57;6.13;;;3.30;;
66270;SDS011;53063;39.614;8.814;2023-05-07T08:58:24;4.25;;;2.80;;
66270;SDS011;53063;39.614;8.814;2023-05-07T09:00:50;3.10;;;2.60;;
66270;SDS011;53063;39.614;8.814;2023-05-07T09:03:18;5.63;;;3.03;;
66270;SDS011;53063;39.614;8.814;2023-05-07T09:05:48;4.15;;;3.25;;
66270;SDS011;53063;39.614;8.814;2023-05-07T09:08:17;7.00;;;3.53;;
66270;SDS011;53063;39.614;8.814;2023-05-07T09:10:45;2.95;;;2.10;;
66270;SDS011;53063;39.614;8.814;2023-05-07T09:13:13;3.67;;;2.88;;
66270;SDS011;53063;39.614;8.814;2023-05-07T09:15:40;2.75;;;2.20;;
66270;SDS011;53063;39.614;8.814;2023-05-07T09:18:06;4.57;;;3.30;;
66270;SDS011;53063;39.614;8.814;2023-05-07T09:20:36;3.55;;;2.17;;
66270;SDS011;53063;39.614;8.814;2023-05-07T09:23:02;2.50;;;1.80;;
66270;SDS011;53063;39.614;8.814;2023-05-07T09:25:32;3.47;;;2.70;;
66270;SDS011;53063;39.614;8.814;2023-05-07T09:28:05;4.25;;;2.30;;
66270;SDS011;53063;39.614;8.814;2023-05-07T09:30:32;7.00;;;4.35;;
66270;SDS011;53063;39.614;8.814;2023-05-07T09:33:03;5.18;;;2.38;;
66270;SDS011;53063;39.614;8.814;2023-05-07T09:35:32;2.03;;;1.80;;
66270;SDS011;53063;39.614;8.814;2023-05-07T09:38:04;9.55;;;3.70;;
66270;SDS011;53063;39.614;8.814;2023-05-07T09:40:32;6.35;;;2.45;;
66270;SDS011;53063;39.614;8.814;2023-05-07T09:43:10;3.57;;;2.53;;
66270;SDS011;53063;39.614;8.814;2023-05-07T09:45:42;3.72;;;2.33;;
66270;SDS011;53063;39.614;8.814;2023-05-07T09:48:10;5.40;;;2.80;;
66270;SDS011;53063;39.614;8.814;2023-05-07T09:50:49;5.32;;;2.42;;
66270;SDS011;53063;39.614;8.814;2023-05-07T09:53:20;5.28;;;1.90;;
66270;SDS011;53063;39.614;8.814;2023-05-07T09:55:47;2.88;;;2.30;;
66270;SDS011;53063;39.614;8.814;2023-05-07T09:58:14;4.20;;;3.08;;
66270;SDS011;53063;39.614;8.814;2023-05-07T10:00:43;4.55;;;2.58;;
66270;SDS011;53063;39.614;8.814;2023-05-07T10:03:13;6.40;;;2.78;;
66270;SDS011;53063;39.614;8.814;2023-05-07T10:05:49;3.60;;;2.85;;
66270;SDS011;53063;39.614;8.814;2023-05-07T10:08:17;4.00;;;2.78;;
66270;SDS011;53063;39.614;8.814;2023-05-07T10:10:47;5.03;;;2.80;;
66270;SDS011;53063;39.614;8.814;2023-05-07T10:13:18;3.60;;;3.10;;
66270;SDS011;53063;39.614;8.814;2023-05-07T10:15:47;3.38;;;2.20;;
66270;SDS011;53063;39.614;8.814;2023-05-07T10:18:14;3.47;;;2.30;;
66270;SDS011;53063;39.614;8.814;2023-05-07T10:20:46;4.05;;;2.17;;
66270;SDS011;53063;39.614;8.814;2023-05-07T10:23:14;3.17;;;2.55;;
66270;SDS011;53063;39.614;8.814;2023-05-07T10:25:47;3.85;;;2.40;;
66270;SDS011;53063;39.614;8.814;2023-05-07T10:28:18;4.30;;;2.20;;
66270;SDS011;53063;39.614;8.814;2023-05-07T10:31:07;5.30;;;2.00;;
66270;SDS011;53063;39.614;8.814;2023-05-07T10:33:47;3.75;;;2.75;;
66270;SDS011;53063;39.614;8.814;2023-05-07T10:38:45;3.63;;;2.60;;
66270;SDS011;53063;39.614;8.814;2023-05-07T10:41:12;6.22;;;2.10;;
66270;SDS011;53063;39.614;8.814;2023-05-07T10:43:41;4.43;;;3.05;;
66270;SDS011;53063;39.614;8.814;2023-05-07T10:46:16;3.08;;;2.33;;
66270;SDS011;53063;39.614;8.814;2023-05-07T10:52:10;2.15;;;1.88;;
66270;SDS011;53063;39.614;8.814;2023-05-07T11:00:48;2.50;;;2.15;;
66270;SDS011;53063;39.614;8.814;2023-05-07T11:03:26;5.57;;;2.35;;
66270;SDS011;53063;39.614;8.814;2023-05-07T11:11:18;2.35;;;1.55;;
66270;SDS011;53063;39.614;8.814;2023-05-07T11:13:50;4.45;;;2.30;;
66270;SDS011;53063;39.614;8.814;2023-05-07T11:16:30;4.05;;;2.20;;
66270;SDS011;53063;39.614;8.814;2023-05-07T11:19:08;2.22;;;1.65;;
66270;SDS011;53063;39.614;8.814;2023-05-07T11:21:41;2.67;;;1.73;;
66270;SDS011;53063;39.614;8.814;2023-05-07T11:24:13;3.08;;;1.77;;
66270;SDS011;53063;39.614;8.814;2023-05-07T11:26:52;1.85;;;1.63;;
66270;SDS011;53063;39.614;8.814;2023-05-07T11:29:21;3.25;;;1.55;;
66270;SDS011;53063;39.614;8.814;2023-05-07T11:31:50;2.17;;;1.63;;
66270;SDS011;53063;39.614;8.814;2023-05-07T11:34:21;2.35;;;1.77;;
66270;SDS011;53063;39.614;8.814;2023-05-07T11:39:27;2.75;;;1.90;;
66270;SDS011;53063;39.614;8.814;2023-05-07T11:41:54;4.85;;;1.60;;
66270;SDS011;53063;39.614;8.814;2023-05-07T11:44:20;3.90;;;2.53;;
66270;SDS011;53063;39.614;8.814;2023-05-07T11:46:46;2.85;;;1.80;;
66270;SDS011;53063;39.614;8.814;2023-05-07T11:49:12;2.08;;;1.80;;
66270;SDS011;53063;39.614;8.814;2023-05-07T11:51:38;2.67;;;1.70;;
66270;SDS011;53063;39.614;8.814;2023-05-07T11:54:05;5.03;;;2.05;;
66270;SDS011;53063;39.614;8.814;2023-05-07T11:56:36;2.30;;;1.80;;
66270;SDS011;53063;39.614;8.814;2023-05-07T11:59:03;6.38;;;1.65;;
66270;SDS011;53063;39.614;8.814;2023-05-07T12:01:29;3.17;;;1.75;;
66270;SDS011;53063;39.614;8.814;2023-05-07T12:03:55;3.00;;;1.70;;
66270;SDS011;53063;39.614;8.814;2023-05-07T12:06:21;5.03;;;1.80;;
66270;SDS011;53063;39.614;8.814;2023-05-07T12:08:47;2.20;;;1.60;;
66270;SDS011;53063;39.614;8.814;2023-05-07T12:11:14;2.53;;;1.73;;
66270;SDS011;53063;39.614;8.814;2023-05-07T12:13:43;3.42;;;1.40;;
66270;SDS011;53063;39.614;8.814;2023-05-07T12:16:09;3.95;;;1.77;;
66270;SDS011;53063;39.614;8.814;2023-05-07T12:18:36;2.17;;;1.77;;
66270;SDS011;53063;39.614;8.814;2023-05-07T12:21:03;1.80;;;1.60;;
66270;SDS011;53063;39.614;8.814;2023-05-07T12:23:30;1.92;;;1.58;;
66270;SDS011;53063;39.614;8.814;2023-05-07T12:25:57;2.75;;;2.00;;
66270;SDS011;53063;39.614;8.814;2023-05-07T12:28:24;3.85;;;2.30;;
66270;SDS011;53063;39.614;8.814;2023-05-07T12:30:50;3.47;;;2.00;;
66270;SDS011;53063;39.614;8.814;2023-05-07T12:33:17;3.00;;;2.17;;
66270;SDS011;53063;39.614;8.814;2023-05-07T12:35:46;4.53;;;2.33;;
66270;SDS011;53063;39.614;8.814;2023-05-07T12:38:14;4.20;;;2.00;;
66270;SDS011;53063;39.614;8.814;2023-05-07T12:40:42;5.07;;;2.38;;
66270;SDS011;53063;39.614;8.814;2023-05-07T12:45:43;4.25;;;2.10;;
66270;SDS011;53063;39.614;8.814;2023-05-07T12:48:10;3.97;;;2.30;;
66270;SDS011;53063;39.614;8.814;2023-05-07T12:50:36;3.42;;;2.33;;
66270;SDS011;53063;39.614;8.814;2023-05-07T12:53:03;5.30;;;2.40;;
66270;SDS011;53063;39.614;8.814;2023-05-07T12:55:46;5.47;;;2.63;;
66270;SDS011;53063;39.614;8.814;2023-05-07T12:58:20;3.53;;;2.38;;
66270;SDS011;53063;39.614;8.814;2023-05-07T13:00:50;2.78;;;2.00;;
66270;SDS011;53063;39.614;8.814;2023-05-07T13:03:27;3.05;;;1.90;;
66270;SDS011;53063;39.614;8.814;2023-05-07T13:05:58;3.63;;;2.08;;
66270;SDS011;53063;39.614;8.814;2023-05-07T13:08:29;7.00;;;2.10;;
66270;SDS011;53063;39.614;8.814;2023-05-07T13:11:03;2.78;;;2.08;;
66270;SDS011;53063;39.614;8.814;2023-05-07T13:13:33;2.95;;;1.83;;
66270;SDS011;53063;39.614;8.814;2023-05-07T13:16:03;4.10;;;1.90;;
66270;SDS011;53063;39.614;8.814;2023-05-07T13:18:31;2.47;;;1.90;;
66270;SDS011;53063;39.614;8.814;2023-05-07T13:20:58;4.57;;;1.90;;
66270;SDS011;53063;39.614;8.814;2023-05-07T13:23:25;2.05;;;1.60;;
66270;SDS011;53063;39.614;8.814;2023-05-07T13:25:51;3.78;;;1.63;;
66270;SDS011;53063;39.614;8.814;2023-05-07T13:28:20;4.70;;;2.10;;
66270;SDS011;53063;39.614;8.814;2023-05-07T13:30:47;6.78;;;2.17;;
66270;SDS011;53063;39.614;8.814;2023-05-07T13:33:13;2.50;;;1.80;;
66270;SDS011;53063;39.614;8.814;2023-05-07T13:35:39;2.72;;;1.73;;
66270;SDS011;53063;39.614;8.814;2023-05-07T13:38:05;2.53;;;2.00;;
66270;SDS011;53063;39.614;8.814;2023-05-07T13:40:31;2.83;;;1.92;;
66270;SDS011;53063;39.614;8.814;2023-05-07T13:42:57;3.45;;;1.80;;
66270;SDS011;53063;39.614;8.814;2023-05-07T13:45:24;2.45;;;1.70;;
66270;SDS011;53063;39.614;8.814;2023-05-07T13:47:51;2.97;;;1.83;;
66270;SDS011;53063;39.614;8.814;2023-05-07T13:50:17;6.97;;;1.75;;
66270;SDS011;53063;39.614;8.814;2023-05-07T13:52:43;5.45;;;1.50;;
66270;SDS011;53063;39.614;8.814;2023-05-07T13:55:16;2.83;;;1.80;;
66270;SDS011;53063;39.614;8.814;2023-05-07T13:57:43;2.85;;;1.50;;
66270;SDS011;53063;39.614;8.814;2023-05-07T14:00:09;5.20;;;1.90;;
66270;SDS011;53063;39.614;8.814;2023-05-07T14:02:42;9.65;;;1.90;;
66270;SDS011;53063;39.614;8.814;2023-05-07T14:05:08;4.05;;;2.00;;
66270;SDS011;53063;39.614;8.814;2023-05-07T14:07:35;4.30;;;1.73;;
66270;SDS011;53063;39.614;8.814;2023-05-07T14:10:01;3.78;;;1.80;;
66270;SDS011;53063;39.614;8.814;2023-05-07T14:12:27;2.53;;;1.70;;
66270;SDS011;53063;39.614;8.814;2023-05-07T14:14:53;2.05;;;1.77;;
66270;SDS011;53063;39.614;8.814;2023-05-07T14:17:20;2.47;;;1.50;;
66270;SDS011;53063;39.614;8.814;2023-05-07T14:19:48;2.13;;;1.50;;
66270;SDS011;53063;39.614;8.814;2023-05-07T14:22:14;2.53;;;1.58;;
66270;SDS011;53063;39.614;8.814;2023-05-07T14:24:40;2.33;;;1.50;;
66270;SDS011;53063;39.614;8.814;2023-05-07T14:27:06;3.22;;;1.52;;
66270;SDS011;53063;39.614;8.814;2023-05-07T14:29:32;2.65;;;1.50;;
66270;SDS011;53063;39.614;8.814;2023-05-07T14:32:00;5.07;;;2.15;;
66270;SDS011;53063;39.614;8.814;2023-05-07T14:34:27;2.55;;;1.50;;
66270;SDS011;53063;39.614;8.814;2023-05-07T14:36:53;1.65;;;1.40;;
66270;SDS011;53063;39.614;8.814;2023-05-07T14:39:18;1.73;;;1.60;;
66270;SDS011;53063;39.614;8.814;2023-05-07T14:41:44;1.88;;;1.52;;
66270;SDS011;53063;39.614;8.814;2023-05-07T14:44:10;4.47;;;1.48;;
66270;SDS011;53063;39.614;8.814;2023-05-07T14:46:36;3.38;;;1.38;;
66270;SDS011;53063;39.614;8.814;2023-05-07T14:49:02;2.05;;;1.60;;
66270;SDS011;53063;39.614;8.814;2023-05-07T14:51:28;1.70;;;1.45;;
66270;SDS011;53063;39.614;8.814;2023-05-07T14:53:54;6.47;;;1.63;;
66270;SDS011;53063;39.614;8.814;2023-05-07T14:56:20;2.78;;;1.40;;
66270;SDS011;53063;39.614;8.814;2023-05-07T14:58:47;3.03;;;1.60;;
66270;SDS011;53063;39.614;8.814;2023-05-07T15:01:13;4.38;;;1.48;;
66270;SDS011;53063;39.614;8.814;2023-05-07T15:03:39;4.53;;;1.92;;
66270;SDS011;53063;39.614;8.814;2023-05-07T15:06:05;3.58;;;1.60;;
66270;SDS011;53063;39.614;8.814;2023-05-07T15:08:31;2.25;;;1.38;;
66270;SDS011;53063;39.614;8.814;2023-05-07T15:10:57;5.07;;;2.33;;
66270;SDS011;53063;39.614;8.814;2023-05-07T15:13:23;2.03;;;1.52;;